createdAt,value
2023-05-20T00:00:35.435Z,82.71
2023-05-20T00:03:02.103Z,82.57
2023-05-20T00:05:28.663Z,82.35
2023-05-20T00:07:55.321Z,82.92
2023-05-20T00:10:21.849Z,83.27
2023-05-20T00:12:48.358Z,82.89
2023-05-20T00:15:14.906Z,84.24
2023-05-20T00:17:41.552Z,84.53
2023-05-20T00:20:08.538Z,84.37
2023-05-20T00:22:35.041Z,84.38
2023-05-20T00:25:01.616Z,84.90
2023-05-20T00:27:28.151Z,84.73
2023-05-20T00:29:54.720Z,86.30
2023-05-20T00:32:21.306Z,85.50
2023-05-20T00:35:00.692Z,85.96
2023-05-20T00:37:27.803Z,87.19
2023-05-20T00:39:54.421Z,87.19
2023-05-20T00:42:30.018Z,87.09
2023-05-20T00:44:56.721Z,87.55
2023-05-20T00:47:30.548Z,86.71
2023-05-20T00:49:57.747Z,86.56
2023-05-20T00:52:25.406Z,87.81
2023-05-20T00:54:52.583Z,87.90
2023-05-20T00:57:20.056Z,88.87
2023-05-20T00:59:46.929Z,89.32
2023-05-20T01:02:13.469Z,89.60
2023-05-20T01:04:40.177Z,89.21
2023-05-20T01:07:07.344Z,89.45
2023-05-20T01:09:34.076Z,91.02
2023-05-20T01:12:09.852Z,93.52
2023-05-20T01:14:42.972Z,94.92
2023-05-20T01:17:12.610Z,97.63
2023-05-20T01:19:44.124Z,98.61
2023-05-20T01:22:12.671Z,97.79
2023-05-20T01:24:44.177Z,96.58
2023-05-20T01:27:13.408Z,95.22
2023-05-20T01:29:41.225Z,94.22
2023-05-20T01:32:13.809Z,97.22
2023-05-20T01:34:41.798Z,99.02
2023-05-20T01:37:10.274Z,98.87
2023-05-20T01:39:40.508Z,100.00
2023-05-20T01:42:08.366Z,100.00
2023-05-20T01:44:35.213Z,100.00
2023-05-20T01:47:01.858Z,100.00
2023-05-20T01:49:28.878Z,100.00
2023-05-20T01:51:55.928Z,100.00
2023-05-20T01:54:22.481Z,100.00
2023-05-20T01:56:50.011Z,100.00
2023-05-20T01:59:16.810Z,100.00
2023-05-20T02:01:43.505Z,100.00
2023-05-20T02:04:10.111Z,100.00
2023-05-20T02:06:36.566Z,100.00
2023-05-20T02:09:03.082Z,100.00
2023-05-20T02:11:29.565Z,100.00
2023-05-20T02:13:56.028Z,100.00
2023-05-20T02:16:22.950Z,100.00
2023-05-20T02:18:51.633Z,100.00
2023-05-20T02:21:18.312Z,100.00
2023-05-20T02:23:45.230Z,100.00
2023-05-20T02:26:11.806Z,100.00
2023-05-20T02:28:41.734Z,100.00
2023-05-20T02:31:08.215Z,100.00
2023-05-20T02:33:35.090Z,100.00
2023-05-20T02:36:02.003Z,100.00
2023-05-20T02:38:29.124Z,100.00
2023-05-20T02:40:56.719Z,100.00
2023-05-20T02:43:23.210Z,100.00
2023-05-20T02:45:49.800Z,100.00
2023-05-20T02:48:16.336Z,100.00
2023-05-20T02:50:42.953Z,100.00
2023-05-20T02:53:09.455Z,100.00
2023-05-20T02:55:36.904Z,100.00
2023-05-20T02:58:03.921Z,100.00
2023-05-20T03:00:40.648Z,100.00
2023-05-20T03:03:08.106Z,100.00
2023-05-20T03:05:37.829Z,100.00
2023-05-20T03:08:10.062Z,100.00
2023-05-20T03:10:37.893Z,100.00
2023-05-20T03:13:09.413Z,100.00
2023-05-20T03:15:36.782Z,100.00
2023-05-20T03:18:04.598Z,100.00
2023-05-20T03:20:32.701Z,100.00
2023-05-20T03:22:59.432Z,100.00
2023-05-20T03:25:26.341Z,100.00
2023-05-20T03:27:53.015Z,100.00
2023-05-20T03:30:19.745Z,100.00
2023-05-20T03:32:46.260Z,100.00
2023-05-20T03:35:13.038Z,100.00
2023-05-20T03:37:39.924Z,100.00
2023-05-20T03:40:07.759Z,100.00
2023-05-20T03:42:34.637Z,100.00
2023-05-20T03:45:01.283Z,100.00
2023-05-20T03:47:28.393Z,100.00
2023-05-20T03:49:55.166Z,100.00
2023-05-20T03:52:21.942Z,100.00
2023-05-20T03:54:48.464Z,100.00
2023-05-20T03:57:15.073Z,100.00
2023-05-20T03:59:41.797Z,100.00
2023-05-20T04:02:09.091Z,100.00
2023-05-20T04:04:36.253Z,100.00
2023-05-20T04:07:07.738Z,100.00
2023-05-20T04:09:34.316Z,100.00
2023-05-20T04:12:00.839Z,100.00
2023-05-20T04:14:27.349Z,100.00
2023-05-20T04:16:53.969Z,100.00
2023-05-20T04:19:20.910Z,100.00
2023-05-20T04:21:47.449Z,100.00
2023-05-20T04:24:14.589Z,100.00
2023-05-20T04:26:41.205Z,100.00
2023-05-20T04:29:07.698Z,100.00
2023-05-20T04:31:34.385Z,100.00
2023-05-20T04:34:00.953Z,100.00
2023-05-20T04:36:30.439Z,100.00
2023-05-20T04:38:57.313Z,100.00
2023-05-20T04:41:24.205Z,100.00
2023-05-20T04:43:50.718Z,100.00
2023-05-20T04:46:17.417Z,100.00
2023-05-20T04:48:44.030Z,100.00
2023-05-20T04:51:11.071Z,100.00
2023-05-20T04:53:38.159Z,100.00
2023-05-20T04:56:05.717Z,100.00
2023-05-20T04:58:33.471Z,100.00
2023-05-20T05:01:01.419Z,100.00
2023-05-20T05:03:28.192Z,100.00
2023-05-20T05:05:58.487Z,100.00
2023-05-20T05:08:26.686Z,100.00
2023-05-20T05:10:53.188Z,100.00
2023-05-20T05:13:19.730Z,100.00
2023-05-20T05:15:46.365Z,100.00
2023-05-20T05:18:12.948Z,100.00
2023-05-20T05:20:39.486Z,100.00
2023-05-20T05:23:06.045Z,100.00
2023-05-20T05:25:33.141Z,100.00
2023-05-20T05:27:59.827Z,100.00
2023-05-20T05:30:26.994Z,100.00
2023-05-20T05:32:53.705Z,100.00
2023-05-20T05:35:20.419Z,100.00
2023-05-20T05:37:46.976Z,100.00
2023-05-20T05:40:13.815Z,100.00
2023-05-20T05:42:40.483Z,100.00
2023-05-20T05:45:07.656Z,100.00
2023-05-20T05:47:34.208Z,100.00
2023-05-20T05:50:00.709Z,100.00
2023-05-20T05:52:27.446Z,100.00
2023-05-20T05:54:54.636Z,100.00
2023-05-20T05:57:21.164Z,100.00
2023-05-20T05:59:47.646Z,100.00
2023-05-20T06:02:14.773Z,100.00
2023-05-20T06:04:41.666Z,100.00
2023-05-20T06:07:08.260Z,100.00
2023-05-20T06:09:35.241Z,100.00
2023-05-20T06:12:02.460Z,100.00
2023-05-20T06:14:29.132Z,100.00
2023-05-20T06:16:55.851Z,100.00
2023-05-20T06:19:22.456Z,100.00
2023-05-20T06:21:49.062Z,100.00
2023-05-20T06:24:16.098Z,100.00
2023-05-20T06:26:42.764Z,100.00
2023-05-20T06:29:09.289Z,100.00
2023-05-20T06:31:35.867Z,100.00
2023-05-20T06:34:02.406Z,100.00
2023-05-20T06:36:29.527Z,100.00
2023-05-20T06:38:56.750Z,100.00
2023-05-20T06:41:23.198Z,100.00
2023-05-20T06:43:51.767Z,100.00
2023-05-20T06:46:19.791Z,100.00
2023-05-20T06:48:46.273Z,100.00
2023-05-20T06:51:12.808Z,100.00
2023-05-20T06:53:39.313Z,100.00
2023-05-20T06:56:05.989Z,100.00
2023-05-20T06:58:32.916Z,100.00
2023-05-20T07:00:59.368Z,100.00
2023-05-20T07:03:26.015Z,100.00
2023-05-20T07:05:52.932Z,100.00
2023-05-20T07:08:19.623Z,100.00
2023-05-20T07:10:46.822Z,100.00
2023-05-20T07:13:13.345Z,100.00
2023-05-20T07:15:40.000Z,100.00
2023-05-20T07:18:06.718Z,100.00
2023-05-20T07:20:33.351Z,100.00
2023-05-20T07:23:00.950Z,100.00
2023-05-20T07:25:27.564Z,100.00
2023-05-20T07:27:54.237Z,100.00
2023-05-20T07:30:21.016Z,100.00
2023-05-20T07:32:47.572Z,100.00
2023-05-20T07:35:14.105Z,100.00
2023-05-20T07:37:42.726Z,100.00
2023-05-20T07:40:09.762Z,100.00
2023-05-20T07:42:36.582Z,100.00
2023-05-20T07:45:03.300Z,100.00
2023-05-20T07:47:31.850Z,100.00
2023-05-20T07:49:58.700Z,100.00
2023-05-20T07:52:25.395Z,100.00
2023-05-20T07:54:51.921Z,99.76
2023-05-20T07:57:18.507Z,100.00
2023-05-20T07:59:45.167Z,100.00
2023-05-20T08:02:11.713Z,100.00
2023-05-20T08:04:38.402Z,100.00
2023-05-20T08:07:05.178Z,100.00
2023-05-20T08:09:34.632Z,100.00
2023-05-20T08:12:01.159Z,100.00
2023-05-20T08:14:27.646Z,100.00
2023-05-20T08:16:54.948Z,100.00
2023-05-20T08:19:21.810Z,100.00
2023-05-20T08:21:48.683Z,100.00
2023-05-20T08:24:15.145Z,100.00
2023-05-20T08:26:41.676Z,100.00
2023-05-20T08:29:08.408Z,100.00
2023-05-20T08:31:34.998Z,100.00
2023-05-20T08:34:01.615Z,100.00
2023-05-20T08:36:28.236Z,100.00
2023-05-20T08:38:55.774Z,100.00
2023-05-20T08:41:22.606Z,100.00
2023-05-20T08:43:51.366Z,100.00
2023-05-20T08:46:19.149Z,100.00
2023-05-20T08:48:45.914Z,100.00
2023-05-20T08:51:16.464Z,99.81
2023-05-20T08:53:43.115Z,100.00
2023-05-20T08:56:10.715Z,100.00
2023-05-20T08:58:37.564Z,98.84
2023-05-20T09:01:04.961Z,98.83
2023-05-20T09:03:32.215Z,99.47
2023-05-20T09:06:07.163Z,99.60
2023-05-20T09:08:33.739Z,100.00
2023-05-20T09:11:00.527Z,100.00
2023-05-20T09:13:27.762Z,100.00
2023-05-20T09:15:54.351Z,98.94
2023-05-20T09:18:20.937Z,100.00
2023-05-20T09:20:50.997Z,99.52
2023-05-20T09:23:19.500Z,99.43
2023-05-20T09:25:50.081Z,100.00
2023-05-20T09:28:17.832Z,97.37
2023-05-20T09:30:46.005Z,97.43
2023-05-20T09:33:13.550Z,97.82
2023-05-20T09:35:41.708Z,99.23
2023-05-20T09:38:10.568Z,100.00
2023-05-20T09:40:41.112Z,98.67
2023-05-20T09:43:08.761Z,98.61
2023-05-20T09:45:35.660Z,99.25
2023-05-20T09:48:05.704Z,97.99
2023-05-20T09:50:32.660Z,96.91
2023-05-20T09:53:03.723Z,97.26
2023-05-20T09:55:30.953Z,96.75
2023-05-20T09:58:01.814Z,96.87
2023-05-20T10:00:28.482Z,96.20
2023-05-20T10:02:55.169Z,96.97
2023-05-20T10:05:30.215Z,96.85
2023-05-20T10:08:15.460Z,96.02
2023-05-20T10:11:03.311Z,96.29
2023-05-20T10:13:52.016Z,97.86
2023-05-20T10:16:24.562Z,95.50
2023-05-20T10:19:31.964Z,94.38
2023-05-20T10:22:03.574Z,95.71
2023-05-20T10:24:38.206Z,95.39
2023-05-20T10:27:10.197Z,95.47
2023-05-20T10:29:51.514Z,97.34
2023-05-20T10:32:29.866Z,94.96
2023-05-20T10:35:05.933Z,95.94
2023-05-20T10:37:39.983Z,96.91
2023-05-20T10:40:11.663Z,96.24
2023-05-20T10:42:38.635Z,96.47
2023-05-20T10:45:07.430Z,96.52
2023-05-20T10:47:34.739Z,96.83
2023-05-20T10:50:02.185Z,98.42
2023-05-20T10:52:33.896Z,100.00
2023-05-20T10:55:01.496Z,98.25
2023-05-20T10:57:29.312Z,97.90
2023-05-20T10:59:56.524Z,98.90
2023-05-20T11:02:26.818Z,96.91
2023-05-20T11:04:55.922Z,96.83
2023-05-20T11:07:29.714Z,96.94
2023-05-20T11:09:59.773Z,96.35
2023-05-20T11:12:27.979Z,97.50
2023-05-20T11:14:55.024Z,96.33
2023-05-20T11:17:21.766Z,97.01
2023-05-20T11:19:48.818Z,98.81
2023-05-20T11:22:15.477Z,99.32
2023-05-20T11:24:42.027Z,99.54
2023-05-20T11:27:08.526Z,97.25
2023-05-20T11:29:35.332Z,97.50
2023-05-20T11:32:02.182Z,94.67
2023-05-20T11:34:36.798Z,95.95
2023-05-20T11:37:07.687Z,94.53
2023-05-20T11:39:34.236Z,92.30
2023-05-20T11:42:00.725Z,93.46
2023-05-20T11:44:27.301Z,93.71
2023-05-20T11:47:00.859Z,96.80
2023-05-20T11:49:27.961Z,96.02
2023-05-20T11:51:54.553Z,93.68
2023-05-20T11:54:23.831Z,92.70
2023-05-20T11:56:50.744Z,93.60
2023-05-20T11:59:17.403Z,90.60
2023-05-20T12:01:44.336Z,91.46
2023-05-20T12:04:13.299Z,90.91
2023-05-20T12:06:40.218Z,91.25
2023-05-20T12:09:08.581Z,89.72
2023-05-20T12:11:37.344Z,93.04
2023-05-20T12:14:04.530Z,90.98
2023-05-20T12:16:33.140Z,89.29
2023-05-20T12:19:00.293Z,90.60
2023-05-20T12:21:28.427Z,87.79
2023-05-20T12:23:58.269Z,86.05
2023-05-20T12:26:26.791Z,86.21
2023-05-20T12:28:53.992Z,85.83
2023-05-20T12:31:20.772Z,86.13
2023-05-20T12:33:47.468Z,86.14
2023-05-20T12:36:14.690Z,85.09
2023-05-20T12:38:41.382Z,86.47
2023-05-20T12:41:08.134Z,86.81
2023-05-20T12:43:36.942Z,87.82
2023-05-20T12:46:04.094Z,87.34
2023-05-20T12:48:30.888Z,89.87
2023-05-20T12:50:57.410Z,88.77
2023-05-20T12:53:23.918Z,86.18
2023-05-20T12:55:50.482Z,86.55
2023-05-20T12:58:16.960Z,86.31
2023-05-20T13:00:43.541Z,86.76
2023-05-20T13:03:10.293Z,84.84
2023-05-20T13:05:36.906Z,84.89
2023-05-20T13:08:03.507Z,84.54
2023-05-20T13:10:30.076Z,87.13
2023-05-20T13:12:56.580Z,85.65
2023-05-20T13:15:23.133Z,86.01
2023-05-20T13:17:49.831Z,85.55
2023-05-20T13:20:19.045Z,84.70
2023-05-20T13:22:46.423Z,83.65
2023-05-20T13:25:12.898Z,83.30
2023-05-20T13:27:39.486Z,84.27
2023-05-20T13:30:06.908Z,83.15
2023-05-20T13:32:33.745Z,83.22
2023-05-20T13:35:00.416Z,83.43
2023-05-20T13:37:26.960Z,82.47
2023-05-20T13:39:53.585Z,84.51
2023-05-20T13:42:22.016Z,84.63
2023-05-20T13:44:48.499Z,82.47
2023-05-20T13:47:15.089Z,82.67
2023-05-20T13:49:41.657Z,82.10
2023-05-20T13:52:08.303Z,83.09
2023-05-20T13:54:34.882Z,84.44
2023-05-20T13:57:01.878Z,84.44
2023-05-20T13:59:28.405Z,82.78
2023-05-20T14:01:54.907Z,85.45
2023-05-20T14:04:22.246Z,83.11
2023-05-20T14:06:48.910Z,80.93
2023-05-20T14:09:15.503Z,82.13
2023-05-20T14:11:42.204Z,81.36
2023-05-20T14:14:09.050Z,83.58
2023-05-20T14:16:36.942Z,80.74
2023-05-20T14:19:03.908Z,80.54
2023-05-20T14:21:31.452Z,80.23
2023-05-20T14:23:58.982Z,80.92
2023-05-20T14:26:25.829Z,82.30
2023-05-20T14:28:52.394Z,82.34
2023-05-20T14:31:18.915Z,82.26
2023-05-20T14:33:45.647Z,80.83
2023-05-20T14:36:12.186Z,78.06
2023-05-20T14:38:38.753Z,76.65
2023-05-20T14:41:05.356Z,75.95
2023-05-20T14:43:32.186Z,77.80
2023-05-20T14:45:58.994Z,78.04
2023-05-20T14:48:25.493Z,79.34
2023-05-20T14:50:52.009Z,79.79
2023-05-20T14:53:19.406Z,77.80
2023-05-20T14:55:45.987Z,76.87
2023-05-20T14:58:12.676Z,79.43
2023-05-20T15:00:39.899Z,79.45
2023-05-20T15:03:06.950Z,80.13
2023-05-20T15:05:33.557Z,80.41
2023-05-20T15:08:00.408Z,78.63
2023-05-20T15:10:27.026Z,78.62
2023-05-20T15:12:53.795Z,78.19
2023-05-20T15:15:21.602Z,79.46
2023-05-20T15:17:48.194Z,79.13
2023-05-20T15:20:14.757Z,78.52
2023-05-20T15:22:41.678Z,78.85
2023-05-20T15:25:08.411Z,79.42
2023-05-20T15:27:35.088Z,79.15
2023-05-20T15:30:01.671Z,79.66
2023-05-20T15:32:28.273Z,79.66
2023-05-20T15:34:54.818Z,79.85
2023-05-20T15:37:22.060Z,80.51
2023-05-20T15:39:48.644Z,78.84
2023-05-20T15:42:18.234Z,79.88
2023-05-20T15:44:45.703Z,79.61
2023-05-20T15:47:12.299Z,79.25
2023-05-20T15:49:39.147Z,78.64
2023-05-20T15:52:05.765Z,77.87
2023-05-20T15:54:32.977Z,78.56
2023-05-20T15:56:59.742Z,79.16
2023-05-20T15:59:26.202Z,78.98
2023-05-20T16:01:52.816Z,80.19
2023-05-20T16:04:19.758Z,80.55
2023-05-20T16:06:47.157Z,79.95
2023-05-20T16:09:13.742Z,80.11
2023-05-20T16:11:40.410Z,78.85
2023-05-20T16:14:07.002Z,79.73
2023-05-20T16:16:35.880Z,80.75
2023-05-20T16:19:02.931Z,80.54
2023-05-20T16:21:29.424Z,81.19
2023-05-20T16:23:55.991Z,82.92
2023-05-20T16:26:22.766Z,82.71
2023-05-20T16:28:49.238Z,82.90
2023-05-20T16:31:16.290Z,83.42
2023-05-20T16:33:42.942Z,83.55
2023-05-20T16:36:09.437Z,84.39
2023-05-20T16:38:36.516Z,83.39
2023-05-20T16:41:03.184Z,83.94
2023-05-20T16:43:29.758Z,84.32
2023-05-20T16:45:56.320Z,85.25
2023-05-20T16:48:22.889Z,84.51
2023-05-20T16:50:49.441Z,85.42
2023-05-20T16:53:16.693Z,84.14
2023-05-20T16:55:43.363Z,84.01
2023-05-20T16:58:10.067Z,84.53
2023-05-20T17:00:36.538Z,84.58
2023-05-20T17:03:03.253Z,85.52
2023-05-20T17:05:29.838Z,86.31
2023-05-20T17:07:59.882Z,87.25
2023-05-20T17:10:28.569Z,86.60
2023-05-20T17:12:55.716Z,87.55
2023-05-20T17:15:23.548Z,87.99
2023-05-20T17:17:50.718Z,86.08
2023-05-20T17:20:17.467Z,86.27
2023-05-20T17:22:44.271Z,87.12
2023-05-20T17:25:11.209Z,89.49
2023-05-20T17:27:37.867Z,90.66
2023-05-20T17:30:04.799Z,89.53
2023-05-20T17:32:31.434Z,89.07
2023-05-20T17:34:57.960Z,89.66
2023-05-20T17:37:24.469Z,88.03
2023-05-20T17:39:51.152Z,88.13
2023-05-20T17:42:17.691Z,87.77
2023-05-20T17:44:44.204Z,87.78
2023-05-20T17:47:10.954Z,89.22
2023-05-20T17:49:37.516Z,88.85
2023-05-20T17:52:04.435Z,89.03
2023-05-20T17:54:31.036Z,90.86
2023-05-20T17:56:57.585Z,90.84
2023-05-20T17:59:24.288Z,90.61
2023-05-20T18:01:51.182Z,89.71
2023-05-20T18:04:18.157Z,90.26
2023-05-20T18:06:45.002Z,90.94
2023-05-20T18:09:11.680Z,91.34
2023-05-20T18:11:39.122Z,90.88
2023-05-20T18:14:05.656Z,91.32
2023-05-20T18:16:32.361Z,91.00
2023-05-20T18:18:59.006Z,90.83
2023-05-20T18:21:26.373Z,92.31
2023-05-20T18:23:53.004Z,91.60
2023-05-20T18:26:19.567Z,91.84
2023-05-20T18:28:46.273Z,91.97
2023-05-20T18:31:12.902Z,93.61
2023-05-20T18:33:40.943Z,92.73
2023-05-20T18:36:07.796Z,94.20
2023-05-20T18:38:34.305Z,95.94
2023-05-20T18:41:00.905Z,95.31
2023-05-20T18:43:27.461Z,94.65
2023-05-20T18:45:54.244Z,95.13
2023-05-20T18:48:26.607Z,96.07
2023-05-20T18:50:54.789Z,95.89
2023-05-20T18:53:21.630Z,96.95
2023-05-20T18:55:48.433Z,97.46
2023-05-20T18:58:15.045Z,97.90
2023-05-20T19:00:42.187Z,98.29
2023-05-20T19:03:08.817Z,98.06
2023-05-20T19:05:35.673Z,98.92
2023-05-20T19:08:04.540Z,99.68
2023-05-20T19:10:31.742Z,100.00
2023-05-20T19:12:58.382Z,100.00
2023-05-20T19:15:24.935Z,100.00
2023-05-20T19:17:51.464Z,100.00
2023-05-20T19:20:17.985Z,100.00
2023-05-20T19:22:44.545Z,100.00
2023-05-20T19:25:11.489Z,100.00
2023-05-20T19:27:38.042Z,100.00
2023-05-20T19:30:04.903Z,100.00
2023-05-20T19:32:31.382Z,100.00
2023-05-20T19:34:57.924Z,100.00
2023-05-20T19:37:24.449Z,100.00
2023-05-20T19:39:51.022Z,100.00
2023-05-20T19:42:17.573Z,100.00
2023-05-20T19:44:46.644Z,100.00
2023-05-20T19:47:13.316Z,100.00
2023-05-20T19:49:39.968Z,100.00
2023-05-20T19:52:07.320Z,100.00
2023-05-20T19:54:34.026Z,100.00
2023-05-20T19:57:00.777Z,100.00
2023-05-20T19:59:27.292Z,100.00
2023-05-20T20:01:53.976Z,100.00
2023-05-20T20:04:20.538Z,100.00
2023-05-20T20:06:48.095Z,100.00
2023-05-20T20:09:15.270Z,100.00
2023-05-20T20:11:43.319Z,100.00
2023-05-20T20:14:10.060Z,100.00
2023-05-20T20:16:36.980Z,100.00
2023-05-20T20:19:04.807Z,100.00
2023-05-20T20:21:31.449Z,100.00
2023-05-20T20:23:57.993Z,100.00
2023-05-20T20:26:25.881Z,100.00
2023-05-20T20:28:52.611Z,100.00
2023-05-20T20:31:19.232Z,100.00
2023-05-20T20:33:45.798Z,100.00
2023-05-20T20:36:12.316Z,100.00
2023-05-20T20:38:38.848Z,100.00
2023-05-20T20:41:05.455Z,100.00
2023-05-20T20:43:34.688Z,100.00
2023-05-20T20:46:01.410Z,100.00
2023-05-20T20:48:27.998Z,100.00
2023-05-20T20:50:54.810Z,100.00
2023-05-20T20:59:03.427Z,100.00
2023-05-20T21:01:29.992Z,100.00
2023-05-20T21:03:56.574Z,100.00
2023-05-20T21:06:23.145Z,100.00
2023-05-20T21:08:49.624Z,100.00
2023-05-20T21:11:17.692Z,100.00
2023-05-20T21:13:44.168Z,100.00
2023-05-20T21:16:10.723Z,100.00
2023-05-20T21:18:37.204Z,100.00
2023-05-20T21:21:04.120Z,100.00
2023-05-20T21:23:30.817Z,100.00
2023-05-20T21:25:57.278Z,100.00
2023-05-20T21:28:23.797Z,100.00
2023-05-20T21:30:50.377Z,100.00
2023-05-20T21:33:16.914Z,100.00
2023-05-20T21:35:43.435Z,100.00
2023-05-20T21:38:10.050Z,100.00
2023-05-20T21:40:36.516Z,100.00
2023-05-20T21:43:03.513Z,100.00
2023-05-20T21:45:30.014Z,100.00
2023-05-20T21:47:56.614Z,100.00
2023-05-20T21:50:23.424Z,100.00
2023-05-20T21:52:50.011Z,100.00
2023-05-20T21:55:17.461Z,100.00
2023-05-20T21:57:43.957Z,100.00
2023-05-20T22:00:11.376Z,100.00
2023-05-20T22:02:38.051Z,100.00
2023-05-20T22:05:05.083Z,100.00
2023-05-20T22:07:31.812Z,100.00
2023-05-20T22:09:58.608Z,100.00
2023-05-20T22:12:25.405Z,100.00
2023-05-20T22:14:51.908Z,100.00
2023-05-20T22:17:18.553Z,100.00
2023-05-20T22:19:45.154Z,100.00
2023-05-20T22:22:11.837Z,100.00
2023-05-20T22:24:38.477Z,100.00
2023-05-20T22:27:05.352Z,100.00
2023-05-20T22:29:32.378Z,100.00
2023-05-20T22:31:59.262Z,100.00
2023-05-20T22:34:26.105Z,100.00
2023-05-20T22:36:53.919Z,100.00
2023-05-20T22:39:21.551Z,100.00
2023-05-20T22:41:48.142Z,100.00
2023-05-20T22:44:14.802Z,100.00
2023-05-20T22:46:41.383Z,100.00
2023-05-20T22:49:07.975Z,100.00
2023-05-20T22:51:36.110Z,100.00
2023-05-20T22:54:02.626Z,100.00
2023-05-20T22:56:29.640Z,100.00
2023-05-20T22:58:56.147Z,100.00
2023-05-20T23:01:24.048Z,100.00
2023-05-20T23:03:53.124Z,100.00
2023-05-20T23:06:19.857Z,100.00
2023-05-20T23:08:47.169Z,100.00
2023-05-20T23:11:13.688Z,100.00
2023-05-20T23:13:40.736Z,100.00
2023-05-20T23:16:07.641Z,100.00
2023-05-20T23:18:34.227Z,100.00
2023-05-20T23:21:00.771Z,100.00
2023-05-20T23:23:31.297Z,100.00
2023-05-20T23:25:58.882Z,100.00
2023-05-20T23:28:25.523Z,100.00
2023-05-20T23:30:52.048Z,100.00
2023-05-20T23:33:24.458Z,100.00
2023-05-20T23:35:51.835Z,100.00
2023-05-20T23:38:18.391Z,100.00
2023-05-20T23:40:44.840Z,100.00
2023-05-20T23:43:11.354Z,100.00
2023-05-20T23:45:37.970Z,100.00
2023-05-20T23:48:05.643Z,100.00
2023-05-20T23:50:32.657Z,100.00
2023-05-20T23:52:59.640Z,100.00
2023-05-20T23:55:28.376Z,100.00
2023-05-20T23:57:54.980Z,100.00
